Regional Weather

 

KMKL - Jackson, TN, USA
Distance from station: WNW 50mi, 81km
Updated: Wed, Aug-23-2017 4:49am CDT
Mist, Clear
Mist, Clear
 Wind from calm
Wind: Calm
Temperature: 68°F , 20°C
Dew Point: 68°F , 20°C
Humidity: 100%
Barometer: 30.02 inHg , 1016.6 hPa
Summary: Mist
Clouds: Clear
Visibility: 3 miles , 5 km
2017/08/23 09:49 KMKL 230949Z AUTO 00000KT 3SM BR CLR 20/20 A3002 RMK AO2
KMEM - Memphis, TN, USA
Distance from station: W 108mi, 173km
Updated: Wed, Aug-23-2017 3:54am CDT
Partly cloudy
Partly cloudy
 Wind from NNW
Wind: NNW 5 mph , 7 km/h
Temperature: 75°F , 24°C
Dew Point: 72°F , 22°C
Humidity: 89%
Barometer: 30.00 inHg , 1015.9 hPa
Clouds: Partly cloudy
Visibility: 10 miles , 16 km
Cloud details: Few Clouds 3500 ft
Partly cloudy 25000 ft
2017/08/23 08:54 KMEM 230854Z 33004KT 10SM FEW035 SCT250 24/22 A3000 RMK AO2 SLP152 T02440222 55012
 
KBNA - Nashville, TN, USA
Distance from station: NE 97mi, 157km
Updated: Wed, Aug-23-2017 3:53am CDT
Mostly cloudy
Mostly cloudy
 Wind from NNW
Wind: NNW 8 mph , 13 km/h
Temperature: 72°F , 22°C
Dew Point: 70°F , 21°C
Humidity: 94%
Barometer: 30.00 inHg , 1015.9 hPa
Clouds: Mostly cloudy
Visibility: 10 miles , 16 km
Cloud details: Few Clouds 700 ft
Partly cloudy 1100 ft
Mostly cloudy 2200 ft
2017/08/23 08:53 KBNA 230853Z 33007KT 10SM FEW007 SCT011 BKN022 22/21 A3000 RMK AO2 SLP151 T02220206 55005
KCKV - Clarksville, TN, USA
Distance from station: NNE 99mi, 159km
Updated: Wed, Aug-23-2017 4:52am CDT
Clear
Clear
 Wind from NNW
Wind: NNW 5 mph , 7 km/h
Temperature: 66°F , 19°C
Dew Point: 64°F , 18°C
Humidity: 94%
Barometer: 30.01 inHg , 1016.3 hPa
Clouds: Clear
Visibility: 10 miles , 16 km
2017/08/23 09:52 KCKV 230952Z AUTO 34004KT 10SM CLR 19/18 A3001 RMK AO2 SLP158 T01940183
 
KPAH - Paducah, KY, USA
Distance from station: NNW 128mi, 205km
Updated: Wed, Aug-23-2017 3:53am CDT
Mostly cloudy
Mostly cloudy
 Wind from N
Wind: N 5 mph , 7 km/h
Temperature: 66°F , 19°C
Dew Point: 63°F , 17°C
Humidity: 88%
Barometer: 30.02 inHg , 1016.6 hPa
Clouds: Mostly cloudy
Visibility: 10 miles , 16 km
Cloud details: Mostly cloudy 4800 ft
2017/08/23 08:53 KPAH 230853Z AUTO 36004KT 10SM BKN048 19/17 A3002 RMK AO2 SLP161 T01940167 55002
KCHA - Chattanooga, TN, USA
Distance from station: E 165mi, 265km
Updated: Wed, Aug-23-2017 4:29am CDT
Mostly cloudy
Mostly cloudy
 Wind from calm
Wind: Calm
Temperature: 77°F , 25°C
Dew Point: 68°F , 20°C
Humidity: 74%
Barometer: 29.97 inHg , 1014.9 hPa
Clouds: Mostly cloudy
Visibility: 10 miles , 16 km
Cloud details: Mostly cloudy 2400 ft
2017/08/23 09:29 KCHA 230929Z AUTO 00000KT 10SM BKN024 25/20 A2997 RMK AO2 T02500200
 
KTYS - Knoxville, TN, USA
Distance from station: E 234mi, 377km
Updated: Wed, Aug-23-2017 4:30am CDT
Overcast
Overcast
 Wind from WSW
Wind: WSW 8 mph , 13 km/h
Temperature: 75°F , 24°C
Dew Point: 70°F , 21°C
Humidity: 83%
Barometer: 29.95 inHg , 1014.2 hPa
Clouds: Overcast
Visibility: 10 miles , 16 km
Cloud details: Mostly cloudy 3100 ft
Mostly cloudy 3500 ft
Overcast 4400 ft
2017/08/23 09:30 KTYS 230930Z 24007KT 10SM BKN031 BKN035 OVC044 24/21 A2995 RMK AO2 T02390206
KLIT - Little Rock, AR, USA
Distance from station: W 240mi, 386km
Updated: Wed, Aug-23-2017 3:53am CDT
Overcast
Overcast
 Wind from NW
Wind: NW 12 mph , 19 km/h
Temperature: 77°F , 25°C
Dew Point: 72°F , 22°C
Humidity: 83%
Barometer: 30.02 inHg , 1016.6 hPa
Clouds: Overcast
Visibility: 10 miles , 16 km
Cloud details: Partly cloudy 5000 ft
Mostly cloudy 7000 ft
Overcast 12000 ft
2017/08/23 08:53 KLIT 230853Z 31010KT 10SM SCT050 BKN070 OVC120 25/22 A3002 RMK AO2 LTG DSNT W SLP166 OCNL LTGIC DSNT W T02500222 55004